Flugplatz Finsterwalde/Heinrichsruh

Für EDAS sind keine METAR/TAF Berichte vorhanden.
Es werden die Flugwettermeldungen vom Flugplatz Holzdorf Airport in 37 km Entfernung angezeigt.

Bericht für ETSH

vom 15.07. um 17:20 UTC

Wind 4 kt aus 310°

Sichtweite 10 km oder mehr

gering bewölkt in 1100 ft

aufgelockert bewölkt in 1600 ft

aufgebrochene Bewölkung in 9000 ft

Temperatur 17.0°C

Taupunkt 14.0°C

Luftfeuchtigkeit 82%

Luftdruck 1012 hPa

ETSH 151720Z 31004KT 9999 FEW011 SCT016 BKN090 17/14 Q1012 BLU

Prognose für ETSH

vom 15.07. um 13:23 UTC

Zwischen 14:00 UTC und 23:00 UTC

Wind 6 kt aus 300°

Sichtweite 8000 m

keine signifikanten Wettererscheinungen

aufgebrochene Bewölkung in 800 ft

bedeckt in 2000 ft


Zwischen 14:00 UTC und 18:00 UTC zeitweise

Wind 5 kt aus 300°

Sichtweite 2000 m

Sprühregen

Regen

aufgebrochene Bewölkung in 500 ft

bedeckt in 2000 ft


Zwischen 18:00 UTC und 23:00 UTC zeitweise

Wind 2 kt aus 300°

Sichtweite 5000 m

feuchter Dunst

gering bewölkt in 1000 ft

aufgebrochene Bewölkung in 2000 ft

TAF ETSH 151323Z 1514/1523 30006KT 8000 NSW BKN008 OVC020 TEMPO 1514/1518 30005KT 2000 DZRA BKN005 OVC020 TEMPO 1518/1523 30002KT 5000 BR FEW010 BKN020
Impressum